createdAt,value
2022-10-05T00:00:54.599Z,71.40
2022-10-05T00:03:23.237Z,71.30
2022-10-05T00:05:58.938Z,70.90
2022-10-05T00:08:34.839Z,70.60
2022-10-05T00:11:04.605Z,69.50
2022-10-05T00:13:35.585Z,70.10
2022-10-05T00:16:14.032Z,69.80
2022-10-05T00:18:41.713Z,68.50
2022-10-05T00:21:25.796Z,69.30
2022-10-05T00:23:53.303Z,68.90
2022-10-05T00:26:21.728Z,68.80
2022-10-05T00:28:49.027Z,69.10
2022-10-05T00:31:26.988Z,68.50
2022-10-05T00:33:55.305Z,68.80
2022-10-05T00:36:22.372Z,68.40
2022-10-05T00:38:49.725Z,68.60
2022-10-05T00:41:44.836Z,68.80
2022-10-05T00:44:25.240Z,68.80
2022-10-05T00:47:56.953Z,68.80
2022-10-05T00:50:35.408Z,68.10
2022-10-05T00:53:17.675Z,68.30
2022-10-05T00:55:54.133Z,68.30
2022-10-05T00:58:24.614Z,68.00
2022-10-05T01:00:56.745Z,67.50
2022-10-05T01:03:40.111Z,67.70
2022-10-05T01:06:23.782Z,67.50
2022-10-05T01:08:56.889Z,67.30
2022-10-05T01:11:43.537Z,66.80
2022-10-05T01:14:25.955Z,66.80
2022-10-05T01:17:20.541Z,66.60
2022-10-05T01:20:01.889Z,67.10
2022-10-05T01:22:48.078Z,66.70
2022-10-05T01:25:50.677Z,66.30
2022-10-05T01:28:23.850Z,66.10
2022-10-05T01:31:06.331Z,66.00
2022-10-05T01:34:02.463Z,65.80
2022-10-05T01:37:05.432Z,66.10
2022-10-05T01:39:58.785Z,66.20
2022-10-05T01:42:42.948Z,66.60
2022-10-05T01:45:31.910Z,67.10
2022-10-05T01:48:10.321Z,67.40
2022-10-05T01:51:01.601Z,67.60
2022-10-05T01:53:36.214Z,67.30
2022-10-05T01:56:42.661Z,68.00
2022-10-05T01:59:44.898Z,68.50
2022-10-05T02:02:22.813Z,67.80
2022-10-05T02:05:07.047Z,68.10
2022-10-05T02:07:58.004Z,68.20
2022-10-05T02:10:35.906Z,68.40
2022-10-05T02:13:07.174Z,68.60
2022-10-05T02:15:39.136Z,68.80
2022-10-05T02:18:21.552Z,68.90
2022-10-05T02:20:51.919Z,69.00
2022-10-05T02:23:24.097Z,69.10
2022-10-05T02:25:52.151Z,68.80
2022-10-05T02:29:04.761Z,68.70
2022-10-05T02:31:50.792Z,68.10
2022-10-05T02:34:32.290Z,66.70
2022-10-05T02:37:54.447Z,66.20
2022-10-05T02:40:46.126Z,65.80
2022-10-05T02:43:40.375Z,65.20
2022-10-05T02:46:16.446Z,65.40
2022-10-05T02:49:02.260Z,65.20
2022-10-05T02:51:36.301Z,64.80
2022-10-05T02:54:20.688Z,64.80
2022-10-05T02:57:21.549Z,64.50
2022-10-05T03:00:15.671Z,64.60
2022-10-05T03:02:58.922Z,64.50
2022-10-05T03:05:51.778Z,64.30
2022-10-05T03:08:34.951Z,64.50
2022-10-05T03:11:15.791Z,64.20
2022-10-05T03:14:02.153Z,64.70
2022-10-05T03:16:33.161Z,64.70
2022-10-05T03:19:22.002Z,64.70
2022-10-05T03:22:13.480Z,64.80
2022-10-05T03:25:03.163Z,64.80
2022-10-05T03:27:37.115Z,64.80
2022-10-05T03:30:05.809Z,65.50
2022-10-05T03:32:45.250Z,65.10
2022-10-05T03:35:22.496Z,65.00
2022-10-05T03:38:15.325Z,64.90
2022-10-05T03:41:01.579Z,65.00
2022-10-05T03:43:46.729Z,65.20
2022-10-05T03:46:22.533Z,65.50
2022-10-05T03:49:01.696Z,66.00
2022-10-05T03:51:41.079Z,66.20
2022-10-05T03:54:24.411Z,66.40
2022-10-05T03:57:15.830Z,66.70
2022-10-05T04:00:08.841Z,66.40
2022-10-05T04:03:12.957Z,66.50
2022-10-05T04:06:09.951Z,66.80
2022-10-05T04:09:06.593Z,67.20
2022-10-05T04:12:03.401Z,67.30
2022-10-05T04:14:44.043Z,67.70
2022-10-05T04:17:21.636Z,68.20
2022-10-05T04:20:03.816Z,68.20
2022-10-05T04:22:40.194Z,68.80
2022-10-05T04:25:24.068Z,68.80
2022-10-05T04:28:11.856Z,68.80
2022-10-05T04:30:46.039Z,68.80
2022-10-05T04:33:16.022Z,68.80
2022-10-05T04:36:36.441Z,68.60
2022-10-05T04:39:45.566Z,68.20
2022-10-05T04:42:15.888Z,68.40
2022-10-05T04:45:02.823Z,67.80
2022-10-05T04:47:42.165Z,67.60
2022-10-05T04:50:49.045Z,67.40
2022-10-05T04:53:35.600Z,67.10
2022-10-05T04:56:14.981Z,67.10
2022-10-05T04:59:07.723Z,66.80
2022-10-05T05:01:53.959Z,66.50
2022-10-05T05:04:54.825Z,66.60
2022-10-05T05:07:48.599Z,66.50
2022-10-05T05:10:41.759Z,66.00
2022-10-05T05:13:24.785Z,65.90
2022-10-05T05:15:52.624Z,66.00
2022-10-05T05:18:42.758Z,66.10
2022-10-05T05:21:20.544Z,65.60
2022-10-05T05:24:12.961Z,65.70
2022-10-05T05:26:52.830Z,65.80
2022-10-05T05:29:42.138Z,65.60
2022-10-05T05:32:13.342Z,65.90
2022-10-05T05:35:06.000Z,65.70
2022-10-05T05:37:39.515Z,65.70
2022-10-05T05:40:28.236Z,66.10
2022-10-05T05:43:16.300Z,65.90
2022-10-05T05:45:52.220Z,66.20
2022-10-05T05:48:38.745Z,66.20
2022-10-05T05:54:15.545Z,67.10
2022-10-05T05:56:47.704Z,67.30
2022-10-05T05:59:24.908Z,68.00
2022-10-05T06:01:54.711Z,67.80
2022-10-05T06:04:45.334Z,68.30
2022-10-05T06:07:28.050Z,68.40
2022-10-05T06:10:21.579Z,68.50
2022-10-05T06:13:01.991Z,68.70
2022-10-05T06:15:43.784Z,68.50
2022-10-05T06:18:14.105Z,68.60
2022-10-05T06:21:10.645Z,68.50
2022-10-05T06:23:49.281Z,68.70
2022-10-05T06:26:29.867Z,68.40
2022-10-05T06:29:19.456Z,68.10
2022-10-05T06:31:59.015Z,68.10
2022-10-05T06:34:45.650Z,67.30
2022-10-05T06:37:20.498Z,67.50
2022-10-05T06:40:10.877Z,66.80
2022-10-05T06:42:46.170Z,65.00
2022-10-05T06:45:41.811Z,64.60
2022-10-05T06:49:03.091Z,63.70
2022-10-05T06:52:16.545Z,62.40
2022-10-05T06:54:54.517Z,62.50
2022-10-05T06:57:45.900Z,61.80
2022-10-05T07:00:24.995Z,62.00
2022-10-05T07:03:00.115Z,61.10
2022-10-05T07:05:42.486Z,61.50
2022-10-05T07:08:11.176Z,60.10
2022-10-05T07:10:57.900Z,60.70
2022-10-05T07:13:40.401Z,59.80
2022-10-05T07:16:26.735Z,59.90
2022-10-05T07:19:10.570Z,59.70
2022-10-05T07:21:58.484Z,59.40
2022-10-05T07:25:06.227Z,59.30
2022-10-05T07:27:34.844Z,59.40
2022-10-05T07:30:06.817Z,59.10
2022-10-05T07:32:43.638Z,58.40
2022-10-05T07:36:11.655Z,58.50
2022-10-05T07:38:58.712Z,58.20
2022-10-05T07:41:37.069Z,58.40
2022-10-05T07:44:34.547Z,58.70
2022-10-05T07:47:31.106Z,58.80
2022-10-05T07:50:19.490Z,58.20
2022-10-05T07:52:50.896Z,58.30
2022-10-05T07:55:45.942Z,58.60
2022-10-05T07:58:21.134Z,59.10
2022-10-05T08:01:11.403Z,57.90
2022-10-05T08:03:47.351Z,57.90
2022-10-05T08:06:38.371Z,58.50
2022-10-05T08:09:21.248Z,58.50
2022-10-05T08:12:10.608Z,58.20
2022-10-05T08:14:57.168Z,58.60
2022-10-05T08:17:56.205Z,59.40
2022-10-05T08:20:29.830Z,59.60
2022-10-05T08:23:16.449Z,60.20
2022-10-05T08:25:51.608Z,59.90
2022-10-05T08:28:58.002Z,59.70
2022-10-05T08:31:32.126Z,59.50
2022-10-05T08:34:25.685Z,59.80
2022-10-05T08:37:14.122Z,60.20
2022-10-05T08:39:49.710Z,60.20
2022-10-05T08:42:29.903Z,60.70
2022-10-05T08:45:09.437Z,60.70
2022-10-05T08:47:55.030Z,60.00
2022-10-05T08:50:41.233Z,60.00
2022-10-05T08:53:14.831Z,59.70
2022-10-05T08:55:47.182Z,60.10
2022-10-05T08:58:33.261Z,59.70
2022-10-05T09:01:18.618Z,59.20
2022-10-05T09:03:55.212Z,58.40
2022-10-05T09:06:22.309Z,57.70
2022-10-05T09:08:52.152Z,57.00
2022-10-05T09:11:28.628Z,56.20
2022-10-05T09:14:21.188Z,56.60
2022-10-05T09:17:28.604Z,55.90
2022-10-05T09:20:18.326Z,56.30
2022-10-05T09:22:52.028Z,55.50
2022-10-05T09:25:43.584Z,55.80
2022-10-05T09:28:30.083Z,55.10
2022-10-05T09:31:19.756Z,54.90
2022-10-05T09:34:03.083Z,54.40
2022-10-05T09:36:48.880Z,54.10
2022-10-05T09:39:19.536Z,54.10
2022-10-05T09:42:05.049Z,55.00
2022-10-05T09:44:54.073Z,54.00
2022-10-05T09:47:55.445Z,54.00
2022-10-05T09:50:25.811Z,53.70
2022-10-05T09:52:53.119Z,53.20
2022-10-05T09:55:32.302Z,53.90
2022-10-05T09:58:14.753Z,53.90
2022-10-05T10:01:32.211Z,53.70
2022-10-05T10:04:31.715Z,53.10
2022-10-05T10:07:05.307Z,53.00
2022-10-05T10:10:04.994Z,53.60
2022-10-05T10:13:10.214Z,52.60
2022-10-05T10:16:06.553Z,52.40
2022-10-05T10:18:36.564Z,52.70
2022-10-05T10:21:13.309Z,50.50
2022-10-05T10:24:11.152Z,51.10
2022-10-05T10:26:57.376Z,50.50
2022-10-05T10:29:33.775Z,50.70
2022-10-05T10:32:48.879Z,51.00
2022-10-05T10:35:38.495Z,50.60
2022-10-05T10:38:29.941Z,51.60
2022-10-05T10:41:34.000Z,51.70
2022-10-05T10:44:39.257Z,52.10
2022-10-05T10:47:14.017Z,52.00
2022-10-05T10:49:59.990Z,52.20
2022-10-05T10:53:01.623Z,52.20
2022-10-05T10:55:38.519Z,51.00
2022-10-05T10:58:31.913Z,50.70
2022-10-05T11:01:05.092Z,50.30
2022-10-05T11:04:18.293Z,50.70
2022-10-05T11:07:14.773Z,50.50
2022-10-05T11:10:26.509Z,50.20
2022-10-05T11:13:13.603Z,50.20
2022-10-05T11:16:10.996Z,49.90
2022-10-05T11:19:04.735Z,49.80
2022-10-05T11:21:54.409Z,50.00
2022-10-05T11:24:48.169Z,50.90
2022-10-05T11:27:31.578Z,52.50
2022-10-05T11:30:17.028Z,52.40
2022-10-05T11:33:24.926Z,52.30
2022-10-05T11:36:33.825Z,52.70
2022-10-05T11:39:23.693Z,53.00
2022-10-05T11:42:09.124Z,52.50
2022-10-05T11:45:07.551Z,52.70
2022-10-05T11:47:57.234Z,53.40
2022-10-05T11:50:34.099Z,53.00
2022-10-05T11:53:06.640Z,53.50
2022-10-05T11:55:57.957Z,54.10
2022-10-05T11:58:48.059Z,54.90
2022-10-05T12:01:15.291Z,55.00
2022-10-05T12:03:51.684Z,55.10
2022-10-05T12:06:34.549Z,53.80
2022-10-05T12:10:01.913Z,53.30
2022-10-05T12:12:55.245Z,52.60
2022-10-05T12:15:32.279Z,52.50
2022-10-05T12:18:07.056Z,51.90
2022-10-05T12:20:50.296Z,52.30
2022-10-05T12:23:22.761Z,53.30
2022-10-05T12:26:01.992Z,52.60
2022-10-05T12:28:49.746Z,53.60
2022-10-05T12:31:25.734Z,54.80
2022-10-05T12:34:14.994Z,56.00
2022-10-05T12:37:08.741Z,58.20
2022-10-05T12:39:51.170Z,61.20
2022-10-05T12:42:32.517Z,63.30
2022-10-05T12:45:31.777Z,66.90
2022-10-05T12:48:31.433Z,67.90
2022-10-05T12:51:14.615Z,71.80
2022-10-05T13:11:05.997Z,77.90
2022-10-05T13:13:40.835Z,75.90
2022-10-05T13:16:32.558Z,75.30
2022-10-05T13:19:19.555Z,75.30
2022-10-05T13:22:04.727Z,74.00
2022-10-05T13:25:02.441Z,73.90
2022-10-05T13:27:50.157Z,74.30
2022-10-05T13:30:20.484Z,73.10
2022-10-05T13:33:01.177Z,72.20
2022-10-05T13:36:03.458Z,71.30
2022-10-05T13:38:43.098Z,71.90
2022-10-05T13:41:44.033Z,72.30
2022-10-05T13:44:14.780Z,72.80
2022-10-05T13:46:56.957Z,72.50
2022-10-05T13:49:51.306Z,72.90
2022-10-05T13:52:42.541Z,74.00
2022-10-05T13:55:36.190Z,74.40
2022-10-05T13:58:07.742Z,78.70
2022-10-05T14:00:56.910Z,82.20
2022-10-05T14:03:37.750Z,79.50
2022-10-05T14:06:12.845Z,81.10
2022-10-05T14:08:58.655Z,80.50
2022-10-05T14:11:36.206Z,81.40
2022-10-05T14:14:10.508Z,80.50
2022-10-05T14:17:06.484Z,82.20
2022-10-05T14:19:54.489Z,82.00
2022-10-05T14:22:32.290Z,82.80
2022-10-05T14:25:18.788Z,82.30
2022-10-05T14:28:19.788Z,80.30
2022-10-05T14:31:02.832Z,79.20
2022-10-05T14:33:34.765Z,78.60
2022-10-05T14:36:02.704Z,77.50
2022-10-05T14:38:38.669Z,77.30
2022-10-05T14:41:16.365Z,74.80
2022-10-05T14:44:17.795Z,73.80
2022-10-05T14:47:02.902Z,73.60
2022-10-05T14:49:39.336Z,73.90
2022-10-05T14:52:33.450Z,73.50
2022-10-05T14:55:34.892Z,72.50
2022-10-05T14:58:11.142Z,73.20
2022-10-05T15:00:48.179Z,71.80
2022-10-05T15:03:19.380Z,71.60
2022-10-05T15:05:50.953Z,71.60
2022-10-05T15:08:21.196Z,71.70
2022-10-05T15:10:52.253Z,71.40
2022-10-05T15:13:24.401Z,72.00
2022-10-05T15:15:54.861Z,70.70
2022-10-05T15:19:12.440Z,72.00
2022-10-05T15:21:43.062Z,69.90
2022-10-05T15:24:41.263Z,70.00
2022-10-05T15:27:13.029Z,68.60
2022-10-05T15:30:09.362Z,69.70
2022-10-05T15:32:42.322Z,69.70
2022-10-05T15:35:27.200Z,69.30
2022-10-05T15:38:10.085Z,70.90
2022-10-05T15:41:03.902Z,70.90
2022-10-05T15:44:17.255Z,66.80
2022-10-05T15:46:46.967Z,69.10
2022-10-05T15:49:19.959Z,69.40
2022-10-05T15:52:05.275Z,70.30
2022-10-05T15:54:57.503Z,69.60
2022-10-05T15:57:42.747Z,66.90
2022-10-05T16:00:17.107Z,67.10
2022-10-05T16:03:14.726Z,66.60
2022-10-05T16:06:04.792Z,63.90
2022-10-05T16:08:58.675Z,65.80
2022-10-05T16:11:48.186Z,63.70
2022-10-05T16:14:56.428Z,63.80
2022-10-05T16:17:30.489Z,62.50
2022-10-05T16:20:09.564Z,63.30
2022-10-05T16:25:46.004Z,63.00
2022-10-05T16:28:39.701Z,63.70
2022-10-05T16:31:47.346Z,61.70
2022-10-05T16:35:08.455Z,61.20
2022-10-05T16:38:45.381Z,62.00
2022-10-05T16:41:17.905Z,63.10
2022-10-05T16:44:09.048Z,61.00
2022-10-05T16:46:46.832Z,61.00
2022-10-05T16:49:36.851Z,60.40
2022-10-05T16:52:06.850Z,60.20
2022-10-05T16:54:42.186Z,61.30
2022-10-05T16:57:21.384Z,59.60
2022-10-05T17:00:15.045Z,59.80
2022-10-05T17:02:46.240Z,58.00
2022-10-05T17:05:13.387Z,58.50
2022-10-05T17:07:55.660Z,57.50
2022-10-05T17:10:37.276Z,59.00
2022-10-05T17:13:04.551Z,58.10
2022-10-05T17:15:55.185Z,58.70
2022-10-05T17:18:28.095Z,59.50
2022-10-05T17:21:18.196Z,58.40
2022-10-05T17:23:55.250Z,59.40
2022-10-05T17:26:53.307Z,59.20
2022-10-05T17:29:27.066Z,57.80
2022-10-05T17:32:02.333Z,57.50
2022-10-05T17:34:35.133Z,57.40
2022-10-05T17:37:28.789Z,56.70
2022-10-05T17:39:56.475Z,56.30
2022-10-05T17:42:26.818Z,56.70
2022-10-05T17:48:02.829Z,55.40
2022-10-05T17:51:04.178Z,55.20
2022-10-05T17:54:02.184Z,56.20
2022-10-05T17:56:53.769Z,56.10
2022-10-05T18:00:02.458Z,57.00
2022-10-05T18:02:40.214Z,57.50
2022-10-05T18:05:53.934Z,57.80
2022-10-05T18:08:32.950Z,58.50
2022-10-05T18:11:09.791Z,59.10
2022-10-05T18:13:50.249Z,58.40
2022-10-05T18:16:37.098Z,58.60
2022-10-05T18:19:08.044Z,58.70
2022-10-05T18:21:37.639Z,58.80
2022-10-05T18:24:20.500Z,59.80
2022-10-05T18:26:50.373Z,59.10
2022-10-05T18:29:54.768Z,59.20
2022-10-05T18:32:34.953Z,59.10
2022-10-05T18:35:11.130Z,58.60
2022-10-05T18:37:59.827Z,59.80
2022-10-05T18:40:42.737Z,58.60
2022-10-05T18:43:17.208Z,58.50
2022-10-05T18:46:31.123Z,58.20
2022-10-05T18:49:20.134Z,58.40
2022-10-05T18:51:55.936Z,58.90
2022-10-05T18:55:05.657Z,59.50
2022-10-05T18:57:57.795Z,58.00
2022-10-05T19:00:30.545Z,58.10
2022-10-05T19:03:56.836Z,56.20
2022-10-05T19:06:57.457Z,55.50
2022-10-05T19:09:57.282Z,59.70
2022-10-05T19:12:46.734Z,60.70
2022-10-05T19:15:32.558Z,60.00
2022-10-05T19:18:26.145Z,60.30
2022-10-05T19:21:30.534Z,59.40
2022-10-05T19:24:57.267Z,59.20
2022-10-05T19:29:06.743Z,59.40
2022-10-05T19:32:11.740Z,60.60
2022-10-05T19:35:40.517Z,61.40
2022-10-05T19:38:21.428Z,61.40
2022-10-05T19:41:13.378Z,61.00
2022-10-05T19:44:18.000Z,60.80
2022-10-05T19:50:02.330Z,61.10
2022-10-05T19:52:50.182Z,61.20
2022-10-05T19:55:22.130Z,59.90
2022-10-05T19:57:52.851Z,60.80
2022-10-05T20:00:27.434Z,60.70
2022-10-05T20:03:14.849Z,59.90
2022-10-05T20:05:55.054Z,60.10
2022-10-05T20:08:28.313Z,60.00
2022-10-05T20:11:18.362Z,59.30
2022-10-05T20:14:06.914Z,59.40
2022-10-05T20:16:53.491Z,60.40
2022-10-05T20:19:35.685Z,59.30
2022-10-05T20:22:24.975Z,59.10
2022-10-05T20:24:54.253Z,59.20
2022-10-05T20:27:40.072Z,59.20
2022-10-05T20:30:07.969Z,59.60
2022-10-05T20:32:35.254Z,59.00
2022-10-05T20:35:03.484Z,59.20
2022-10-05T20:37:31.547Z,59.90
2022-10-05T20:40:00.340Z,59.80
2022-10-05T20:42:27.401Z,59.70
2022-10-05T20:44:56.963Z,59.80
2022-10-05T20:47:25.042Z,59.60
2022-10-05T20:49:54.980Z,59.30
2022-10-05T20:52:23.369Z,59.50
2022-10-05T20:54:53.892Z,59.30
2022-10-05T20:57:21.389Z,59.10
2022-10-05T20:59:49.341Z,59.00
2022-10-05T21:02:17.169Z,58.70
2022-10-05T21:04:53.395Z,59.10
2022-10-05T21:07:21.862Z,58.40
2022-10-05T21:09:49.185Z,58.60
2022-10-05T21:12:20.533Z,58.70
2022-10-05T21:14:47.670Z,57.90
2022-10-05T21:17:14.929Z,58.40
2022-10-05T21:19:42.356Z,58.40
2022-10-05T21:22:09.869Z,58.00
2022-10-05T21:24:38.005Z,57.70
2022-10-05T21:27:05.573Z,57.50
2022-10-05T21:29:41.830Z,57.70
2022-10-05T21:32:12.050Z,57.80
2022-10-05T21:34:39.996Z,58.10
2022-10-05T21:37:07.980Z,58.00
2022-10-05T21:39:35.829Z,58.00
2022-10-05T21:42:03.053Z,57.70
2022-10-05T21:44:35.533Z,58.50
2022-10-05T21:47:04.438Z,57.60
2022-10-05T21:49:31.835Z,57.50
2022-10-05T21:52:00.815Z,57.80
2022-10-05T21:54:28.861Z,57.20
2022-10-05T21:57:01.678Z,56.90
2022-10-05T21:59:34.586Z,56.50
2022-10-05T22:02:02.642Z,56.20
2022-10-05T22:04:30.006Z,56.50
2022-10-05T22:06:57.363Z,56.30
2022-10-05T22:09:27.232Z,56.80
2022-10-05T22:11:55.095Z,56.20
2022-10-05T22:14:22.746Z,56.10
2022-10-05T22:16:49.928Z,56.00
2022-10-05T22:19:20.723Z,56.20
2022-10-05T22:21:47.996Z,56.70
2022-10-05T22:24:15.382Z,56.30
2022-10-05T22:26:46.537Z,56.70
2022-10-05T22:29:14.959Z,56.80
2022-10-05T22:31:46.375Z,57.10
2022-10-05T22:34:23.561Z,57.10
2022-10-05T22:36:50.899Z,57.20
2022-10-05T22:39:18.041Z,57.10
2022-10-05T22:41:45.600Z,57.80
2022-10-05T22:44:16.231Z,57.20
2022-10-05T22:46:43.632Z,57.20
2022-10-05T22:49:10.956Z,57.40
2022-10-05T22:51:37.991Z,58.30
2022-10-05T22:54:05.588Z,57.90
2022-10-05T22:56:33.062Z,58.30
2022-10-05T22:59:03.030Z,58.30
2022-10-05T23:01:30.123Z,58.90
2022-10-05T23:03:57.687Z,58.90
2022-10-05T23:06:26.725Z,59.30
2022-10-05T23:08:54.476Z,59.20
2022-10-05T23:11:26.108Z,59.50
2022-10-05T23:13:57.374Z,59.70
2022-10-05T23:16:26.988Z,60.00
2022-10-05T23:18:54.665Z,60.50
2022-10-05T23:21:22.612Z,60.40
2022-10-05T23:23:51.523Z,60.60
2022-10-05T23:26:20.889Z,60.90
2022-10-05T23:28:48.191Z,61.60
2022-10-05T23:31:17.379Z,61.30
2022-10-05T23:33:44.461Z,61.30
2022-10-05T23:36:22.635Z,61.20
2022-10-05T23:38:50.211Z,61.40
2022-10-05T23:41:25.503Z,61.80
2022-10-05T23:43:55.457Z,62.00
2022-10-05T23:46:22.950Z,62.20
2022-10-05T23:48:50.654Z,62.40
2022-10-05T23:51:17.832Z,62.40
2022-10-05T23:53:45.041Z,62.70
2022-10-05T23:56:12.446Z,62.60
2022-10-05T23:58:41.171Z,63.00
